sensor_id;sensor_type;location;lat;lon;timestamp;P1;durP1;ratioP1;P2;durP2;ratioP2
5454;SDS011;2750;49.050;9.250;2024-03-22T00:03:49;8.50;;;7.70;;
5454;SDS011;2750;49.050;9.250;2024-03-22T00:08:51;12.53;;;7.83;;
5454;SDS011;2750;49.050;9.250;2024-03-22T00:13:52;11.97;;;8.00;;
5454;SDS011;2750;49.050;9.250;2024-03-22T00:18:55;8.20;;;6.20;;
5454;SDS011;2750;49.050;9.250;2024-03-22T00:23:57;8.83;;;6.10;;
5454;SDS011;2750;49.050;9.250;2024-03-22T00:28:59;9.30;;;7.77;;
5454;SDS011;2750;49.050;9.250;2024-03-22T00:34:02;9.70;;;8.37;;
5454;SDS011;2750;49.050;9.250;2024-03-22T00:39:03;11.27;;;8.83;;
5454;SDS011;2750;49.050;9.250;2024-03-22T00:44:05;11.50;;;8.73;;
5454;SDS011;2750;49.050;9.250;2024-03-22T00:49:08;10.10;;;7.97;;
5454;SDS011;2750;49.050;9.250;2024-03-22T00:54:09;10.63;;;8.80;;
5454;SDS011;2750;49.050;9.250;2024-03-22T00:59:11;10.93;;;9.17;;
5454;SDS011;2750;49.050;9.250;2024-03-22T01:04:14;12.23;;;9.00;;
5454;SDS011;2750;49.050;9.250;2024-03-22T01:09:15;10.87;;;8.73;;
5454;SDS011;2750;49.050;9.250;2024-03-22T01:14:17;12.20;;;8.37;;
5454;SDS011;2750;49.050;9.250;2024-03-22T01:19:20;12.77;;;8.93;;
5454;SDS011;2750;49.050;9.250;2024-03-22T01:24:22;12.70;;;8.90;;
5454;SDS011;2750;49.050;9.250;2024-03-22T01:29:24;9.00;;;7.47;;
5454;SDS011;2750;49.050;9.250;2024-03-22T01:34:29;10.10;;;8.03;;
5454;SDS011;2750;49.050;9.250;2024-03-22T01:39:30;17.37;;;9.53;;
5454;SDS011;2750;49.050;9.250;2024-03-22T01:44:32;12.07;;;9.23;;
5454;SDS011;2750;49.050;9.250;2024-03-22T01:49:35;11.13;;;8.50;;
5454;SDS011;2750;49.050;9.250;2024-03-22T01:54:37;9.33;;;7.73;;
5454;SDS011;2750;49.050;9.250;2024-03-22T01:59:38;9.07;;;7.03;;
5454;SDS011;2750;49.050;9.250;2024-03-22T02:04:42;9.33;;;7.10;;
5454;SDS011;2750;49.050;9.250;2024-03-22T02:09:43;9.67;;;7.50;;
5454;SDS011;2750;49.050;9.250;2024-03-22T02:14:45;10.90;;;7.83;;
5454;SDS011;2750;49.050;9.250;2024-03-22T02:19:48;11.00;;;7.97;;
5454;SDS011;2750;49.050;9.250;2024-03-22T02:24:51;10.63;;;7.27;;
5454;SDS011;2750;49.050;9.250;2024-03-22T02:29:52;8.40;;;6.83;;
5454;SDS011;2750;49.050;9.250;2024-03-22T02:34:54;9.47;;;7.53;;
5454;SDS011;2750;49.050;9.250;2024-03-22T02:39:57;10.20;;;7.57;;
5454;SDS011;2750;49.050;9.250;2024-03-22T02:44:58;8.80;;;7.57;;
5454;SDS011;2750;49.050;9.250;2024-03-22T02:50:00;10.07;;;6.80;;
5454;SDS011;2750;49.050;9.250;2024-03-22T02:55:03;10.30;;;8.10;;
5454;SDS011;2750;49.050;9.250;2024-03-22T03:00:05;13.00;;;8.77;;
5454;SDS011;2750;49.050;9.250;2024-03-22T03:05:08;16.43;;;9.70;;
5454;SDS011;2750;49.050;9.250;2024-03-22T03:10:11;14.17;;;9.17;;
5454;SDS011;2750;49.050;9.250;2024-03-22T03:15:12;11.20;;;9.43;;
5454;SDS011;2750;49.050;9.250;2024-03-22T03:20:14;12.07;;;9.30;;
5454;SDS011;2750;49.050;9.250;2024-03-22T03:25:17;11.43;;;8.30;;
5454;SDS011;2750;49.050;9.250;2024-03-22T03:30:19;10.03;;;8.10;;
5454;SDS011;2750;49.050;9.250;2024-03-22T03:35:20;10.13;;;8.90;;
5454;SDS011;2750;49.050;9.250;2024-03-22T03:40:23;11.50;;;8.20;;
5454;SDS011;2750;49.050;9.250;2024-03-22T03:45:25;10.30;;;7.37;;
5454;SDS011;2750;49.050;9.250;2024-03-22T03:50:26;11.50;;;8.47;;
5454;SDS011;2750;49.050;9.250;2024-03-22T03:55:29;15.33;;;9.33;;
5454;SDS011;2750;49.050;9.250;2024-03-22T04:00:31;12.50;;;9.10;;
5454;SDS011;2750;49.050;9.250;2024-03-22T04:05:32;10.80;;;8.57;;
5454;SDS011;2750;49.050;9.250;2024-03-22T04:10:35;11.80;;;9.30;;
5454;SDS011;2750;49.050;9.250;2024-03-22T04:15:36;12.13;;;8.70;;
5454;SDS011;2750;49.050;9.250;2024-03-22T04:20:38;14.80;;;10.87;;
5454;SDS011;2750;49.050;9.250;2024-03-22T04:25:41;14.33;;;9.87;;
5454;SDS011;2750;49.050;9.250;2024-03-22T04:30:42;13.63;;;9.77;;
5454;SDS011;2750;49.050;9.250;2024-03-22T04:35:45;14.30;;;10.80;;
5454;SDS011;2750;49.050;9.250;2024-03-22T04:40:47;12.40;;;9.67;;
5454;SDS011;2750;49.050;9.250;2024-03-22T04:45:49;15.70;;;8.73;;
5454;SDS011;2750;49.050;9.250;2024-03-22T04:50:52;13.37;;;9.03;;
5454;SDS011;2750;49.050;9.250;2024-03-22T04:55:55;18.93;;;11.03;;
5454;SDS011;2750;49.050;9.250;2024-03-22T05:00:57;13.60;;;9.47;;
5454;SDS011;2750;49.050;9.250;2024-03-22T05:05:59;12.40;;;9.17;;
5454;SDS011;2750;49.050;9.250;2024-03-22T05:11:04;12.90;;;10.10;;
5454;SDS011;2750;49.050;9.250;2024-03-22T05:16:06;12.97;;;9.90;;
5454;SDS011;2750;49.050;9.250;2024-03-22T05:21:08;11.23;;;8.93;;
5454;SDS011;2750;49.050;9.250;2024-03-22T05:26:11;14.97;;;9.63;;
5454;SDS011;2750;49.050;9.250;2024-03-22T05:31:12;12.73;;;9.20;;
5454;SDS011;2750;49.050;9.250;2024-03-22T05:36:14;18.33;;;10.23;;
5454;SDS011;2750;49.050;9.250;2024-03-22T05:41:17;14.03;;;9.60;;
5454;SDS011;2750;49.050;9.250;2024-03-22T05:46:18;13.20;;;10.77;;
5454;SDS011;2750;49.050;9.250;2024-03-22T05:51:20;15.53;;;11.00;;
5454;SDS011;2750;49.050;9.250;2024-03-22T05:56:23;14.37;;;10.93;;
5454;SDS011;2750;49.050;9.250;2024-03-22T06:01:25;15.63;;;11.67;;
5454;SDS011;2750;49.050;9.250;2024-03-22T06:06:26;18.97;;;15.00;;
5454;SDS011;2750;49.050;9.250;2024-03-22T06:11:29;18.33;;;12.93;;
5454;SDS011;2750;49.050;9.250;2024-03-22T06:16:49;19.87;;;14.67;;
5454;SDS011;2750;49.050;9.250;2024-03-22T06:23:01;17.70;;;14.77;;
5454;SDS011;2750;49.050;9.250;2024-03-22T06:28:05;17.13;;;13.57;;
5454;SDS011;2750;49.050;9.250;2024-03-22T06:33:07;14.97;;;12.63;;
5454;SDS011;2750;49.050;9.250;2024-03-22T06:38:08;16.13;;;13.43;;
5454;SDS011;2750;49.050;9.250;2024-03-22T06:43:11;13.83;;;12.33;;
5454;SDS011;2750;49.050;9.250;2024-03-22T06:48:13;14.47;;;11.60;;
5454;SDS011;2750;49.050;9.250;2024-03-22T06:53:15;13.17;;;11.77;;
5454;SDS011;2750;49.050;9.250;2024-03-22T06:58:18;13.60;;;11.83;;
5454;SDS011;2750;49.050;9.250;2024-03-22T07:03:20;11.93;;;10.33;;
5454;SDS011;2750;49.050;9.250;2024-03-22T07:08:24;14.03;;;10.60;;
5454;SDS011;2750;49.050;9.250;2024-03-22T07:13:27;10.93;;;9.73;;
5454;SDS011;2750;49.050;9.250;2024-03-22T07:18:28;13.07;;;10.00;;
5454;SDS011;2750;49.050;9.250;2024-03-22T07:23:30;10.67;;;9.23;;
5454;SDS011;2750;49.050;9.250;2024-03-22T07:28:33;10.23;;;9.23;;
5454;SDS011;2750;49.050;9.250;2024-03-22T07:33:35;10.13;;;9.10;;
5454;SDS011;2750;49.050;9.250;2024-03-22T07:38:36;11.60;;;8.67;;
5454;SDS011;2750;49.050;9.250;2024-03-22T07:43:40;9.95;;;8.68;;
5454;SDS011;2750;49.050;9.250;2024-03-22T07:48:42;9.38;;;8.20;;
5454;SDS011;2750;49.050;9.250;2024-03-22T07:53:43;9.52;;;8.10;;
5454;SDS011;2750;49.050;9.250;2024-03-22T07:58:46;10.05;;;8.75;;
5454;SDS011;2750;49.050;9.250;2024-03-22T08:03:50;11.80;;;8.88;;
5454;SDS011;2750;49.050;9.250;2024-03-22T08:08:52;10.02;;;8.65;;
5454;SDS011;2750;49.050;9.250;2024-03-22T08:13:55;9.65;;;8.65;;
5454;SDS011;2750;49.050;9.250;2024-03-22T08:19:02;13.33;;;9.70;;
5454;SDS011;2750;49.050;9.250;2024-03-22T08:24:04;11.77;;;9.77;;
5454;SDS011;2750;49.050;9.250;2024-03-22T08:29:07;10.23;;;9.00;;
5454;SDS011;2750;49.050;9.250;2024-03-22T08:34:09;10.00;;;8.70;;
5454;SDS011;2750;49.050;9.250;2024-03-22T08:39:11;9.47;;;8.50;;
5454;SDS011;2750;49.050;9.250;2024-03-22T08:44:13;10.27;;;9.20;;
5454;SDS011;2750;49.050;9.250;2024-03-22T08:49:15;11.60;;;10.03;;
5454;SDS011;2750;49.050;9.250;2024-03-22T08:54:19;10.17;;;9.07;;
5454;SDS011;2750;49.050;9.250;2024-03-22T08:59:22;11.47;;;9.30;;
5454;SDS011;2750;49.050;9.250;2024-03-22T09:04:24;11.83;;;8.87;;
5454;SDS011;2750;49.050;9.250;2024-03-22T09:09:26;10.27;;;9.17;;
5454;SDS011;2750;49.050;9.250;2024-03-22T09:14:29;8.67;;;7.77;;
5454;SDS011;2750;49.050;9.250;2024-03-22T09:19:30;9.03;;;8.17;;
5454;SDS011;2750;49.050;9.250;2024-03-22T09:24:32;8.67;;;7.77;;
5454;SDS011;2750;49.050;9.250;2024-03-22T09:29:35;11.03;;;8.90;;
5454;SDS011;2750;49.050;9.250;2024-03-22T09:34:36;8.50;;;7.27;;
5454;SDS011;2750;49.050;9.250;2024-03-22T09:39:38;8.10;;;7.10;;
5454;SDS011;2750;49.050;9.250;2024-03-22T09:44:41;9.13;;;7.57;;
5454;SDS011;2750;49.050;9.250;2024-03-22T09:49:48;8.50;;;7.60;;
5454;SDS011;2750;49.050;9.250;2024-03-22T09:54:49;8.47;;;7.53;;
5454;SDS011;2750;49.050;9.250;2024-03-22T09:59:53;10.07;;;7.50;;
5454;SDS011;2750;49.050;9.250;2024-03-22T10:04:56;8.13;;;7.33;;
5454;SDS011;2750;49.050;9.250;2024-03-22T10:09:58;8.37;;;7.47;;
5454;SDS011;2750;49.050;9.250;2024-03-22T10:15:01;9.93;;;7.20;;
5454;SDS011;2750;49.050;9.250;2024-03-22T10:20:03;7.70;;;7.00;;
5454;SDS011;2750;49.050;9.250;2024-03-22T10:25:07;8.47;;;7.10;;
5454;SDS011;2750;49.050;9.250;2024-03-22T10:30:10;7.83;;;7.03;;
5454;SDS011;2750;49.050;9.250;2024-03-22T10:35:16;9.70;;;7.43;;
5454;SDS011;2750;49.050;9.250;2024-03-22T10:40:19;9.90;;;7.87;;
5454;SDS011;2750;49.050;9.250;2024-03-22T10:45:23;8.75;;;6.60;;
5454;SDS011;2750;49.050;9.250;2024-03-22T10:50:28;7.97;;;7.15;;
5454;SDS011;2750;49.050;9.250;2024-03-22T10:55:32;9.25;;;7.40;;
5454;SDS011;2750;49.050;9.250;2024-03-22T11:00:37;8.77;;;6.60;;
5454;SDS011;2750;49.050;9.250;2024-03-22T11:05:46;10.27;;;7.40;;
5454;SDS011;2750;49.050;9.250;2024-03-22T11:10:48;8.13;;;7.33;;
5454;SDS011;2750;49.050;9.250;2024-03-22T11:15:51;7.70;;;6.97;;
5454;SDS011;2750;49.050;9.250;2024-03-22T11:20:53;8.23;;;7.33;;
5454;SDS011;2750;49.050;9.250;2024-03-22T11:25:55;8.23;;;7.43;;
5454;SDS011;2750;49.050;9.250;2024-03-22T11:30:59;8.65;;;7.75;;
5454;SDS011;2750;49.050;9.250;2024-03-22T11:36:01;8.52;;;7.30;;
5454;SDS011;2750;49.050;9.250;2024-03-22T11:41:02;8.65;;;7.30;;
5454;SDS011;2750;49.050;9.250;2024-03-22T11:46:06;8.43;;;7.45;;
5454;SDS011;2750;49.050;9.250;2024-03-22T11:51:08;8.00;;;7.00;;
5454;SDS011;2750;49.050;9.250;2024-03-22T11:56:10;10.43;;;7.10;;
5454;SDS011;2750;49.050;9.250;2024-03-22T12:01:13;7.82;;;7.00;;
5454;SDS011;2750;49.050;9.250;2024-03-22T12:06:15;7.85;;;6.88;;
5454;SDS011;2750;49.050;9.250;2024-03-22T12:11:17;5.97;;;5.47;;
5454;SDS011;2750;49.050;9.250;2024-03-22T12:16:20;7.97;;;6.10;;
5454;SDS011;2750;49.050;9.250;2024-03-22T12:21:21;7.15;;;5.82;;
5454;SDS011;2750;49.050;9.250;2024-03-22T12:26:24;5.32;;;4.15;;
5454;SDS011;2750;49.050;9.250;2024-03-22T12:31:27;4.30;;;2.65;;
5454;SDS011;2750;49.050;9.250;2024-03-22T12:36:28;5.03;;;2.97;;
5454;SDS011;2750;49.050;9.250;2024-03-22T12:41:30;4.75;;;3.13;;
5454;SDS011;2750;49.050;9.250;2024-03-22T12:46:34;4.00;;;3.60;;
5454;SDS011;2750;49.050;9.250;2024-03-22T12:51:36;6.88;;;3.72;;
5454;SDS011;2750;49.050;9.250;2024-03-22T12:56:38;3.30;;;3.00;;
5454;SDS011;2750;49.050;9.250;2024-03-22T13:01:41;4.00;;;2.57;;
5454;SDS011;2750;49.050;9.250;2024-03-22T13:06:43;2.73;;;2.17;;
5454;SDS011;2750;49.050;9.250;2024-03-22T13:11:45;3.53;;;2.70;;
5454;SDS011;2750;49.050;9.250;2024-03-22T13:16:48;4.43;;;2.50;;
5454;SDS011;2750;49.050;9.250;2024-03-22T13:21:50;3.97;;;3.03;;
5454;SDS011;2750;49.050;9.250;2024-03-22T13:26:51;4.07;;;3.20;;
5454;SDS011;2750;49.050;9.250;2024-03-22T13:31:54;3.87;;;2.60;;
5454;SDS011;2750;49.050;9.250;2024-03-22T13:36:56;6.90;;;3.03;;
5454;SDS011;2750;49.050;9.250;2024-03-22T13:41:57;6.13;;;3.67;;
5454;SDS011;2750;49.050;9.250;2024-03-22T13:47:00;5.33;;;3.00;;
5454;SDS011;2750;49.050;9.250;2024-03-22T13:52:04;3.53;;;3.20;;
5454;SDS011;2750;49.050;9.250;2024-03-22T13:57:06;5.03;;;2.90;;
5454;SDS011;2750;49.050;9.250;2024-03-22T14:02:09;4.33;;;3.40;;
5454;SDS011;2750;49.050;9.250;2024-03-22T14:07:11;3.17;;;2.77;;
5454;SDS011;2750;49.050;9.250;2024-03-22T14:12:12;3.67;;;2.67;;
5454;SDS011;2750;49.050;9.250;2024-03-22T14:17:15;3.03;;;2.70;;
5454;SDS011;2750;49.050;9.250;2024-03-22T14:22:16;5.90;;;3.20;;
5454;SDS011;2750;49.050;9.250;2024-03-22T14:27:18;3.97;;;3.20;;
5454;SDS011;2750;49.050;9.250;2024-03-22T14:32:21;4.57;;;2.23;;
5454;SDS011;2750;49.050;9.250;2024-03-22T14:37:23;4.33;;;2.40;;
5454;SDS011;2750;49.050;9.250;2024-03-22T14:42:24;3.33;;;2.47;;
5454;SDS011;2750;49.050;9.250;2024-03-22T14:47:27;4.03;;;2.50;;
5454;SDS011;2750;49.050;9.250;2024-03-22T14:52:29;2.70;;;2.30;;
5454;SDS011;2750;49.050;9.250;2024-03-22T14:57:31;2.80;;;2.50;;
5454;SDS011;2750;49.050;9.250;2024-03-22T15:02:37;6.70;;;3.00;;
5454;SDS011;2750;49.050;9.250;2024-03-22T15:07:39;4.47;;;2.87;;
5454;SDS011;2750;49.050;9.250;2024-03-22T15:12:40;3.00;;;2.70;;
5454;SDS011;2750;49.050;9.250;2024-03-22T15:17:43;3.30;;;3.00;;
5454;SDS011;2750;49.050;9.250;2024-03-22T15:22:45;4.93;;;2.90;;
5454;SDS011;2750;49.050;9.250;2024-03-22T15:27:46;3.00;;;2.77;;
5454;SDS011;2750;49.050;9.250;2024-03-22T15:32:49;2.87;;;2.67;;
5454;SDS011;2750;49.050;9.250;2024-03-22T15:37:53;3.83;;;3.43;;
5454;SDS011;2750;49.050;9.250;2024-03-22T15:42:54;3.90;;;3.00;;
5454;SDS011;2750;49.050;9.250;2024-03-22T15:47:57;4.40;;;3.13;;
5454;SDS011;2750;49.050;9.250;2024-03-22T15:52:59;4.20;;;3.30;;
5454;SDS011;2750;49.050;9.250;2024-03-22T15:58:00;3.67;;;3.20;;
5454;SDS011;2750;49.050;9.250;2024-03-22T16:03:03;5.83;;;3.53;;
5454;SDS011;2750;49.050;9.250;2024-03-22T16:08:06;4.30;;;3.47;;
5454;SDS011;2750;49.050;9.250;2024-03-22T16:13:07;6.70;;;3.60;;
5454;SDS011;2750;49.050;9.250;2024-03-22T16:18:11;4.13;;;3.60;;
5454;SDS011;2750;49.050;9.250;2024-03-22T16:23:12;5.13;;;4.10;;
5454;SDS011;2750;49.050;9.250;2024-03-22T16:28:14;4.77;;;3.40;;
5454;SDS011;2750;49.050;9.250;2024-03-22T16:33:17;7.27;;;3.93;;
5454;SDS011;2750;49.050;9.250;2024-03-22T16:38:18;4.53;;;3.63;;
5454;SDS011;2750;49.050;9.250;2024-03-22T16:43:20;4.47;;;3.80;;
5454;SDS011;2750;49.050;9.250;2024-03-22T16:48:23;4.47;;;3.90;;
5454;SDS011;2750;49.050;9.250;2024-03-22T16:53:24;5.10;;;4.20;;
5454;SDS011;2750;49.050;9.250;2024-03-22T16:58:26;5.37;;;4.00;;
5454;SDS011;2750;49.050;9.250;2024-03-22T17:03:29;6.20;;;5.37;;
5454;SDS011;2750;49.050;9.250;2024-03-22T17:08:30;5.03;;;3.63;;
5454;SDS011;2750;49.050;9.250;2024-03-22T17:13:32;4.37;;;3.50;;
5454;SDS011;2750;49.050;9.250;2024-03-22T17:18:35;4.80;;;3.53;;
5454;SDS011;2750;49.050;9.250;2024-03-22T17:23:36;4.30;;;3.27;;
5454;SDS011;2750;49.050;9.250;2024-03-22T17:28:38;7.67;;;4.37;;
5454;SDS011;2750;49.050;9.250;2024-03-22T17:33:41;6.33;;;5.30;;
5454;SDS011;2750;49.050;9.250;2024-03-22T17:38:44;4.97;;;4.30;;
5454;SDS011;2750;49.050;9.250;2024-03-22T17:43:46;5.13;;;3.53;;
5454;SDS011;2750;49.050;9.250;2024-03-22T17:48:50;4.87;;;3.30;;
5454;SDS011;2750;49.050;9.250;2024-03-22T17:53:52;5.80;;;3.30;;
5454;SDS011;2750;49.050;9.250;2024-03-22T17:58:53;3.77;;;3.10;;
5454;SDS011;2750;49.050;9.250;2024-03-22T18:03:56;3.67;;;2.90;;
5454;SDS011;2750;49.050;9.250;2024-03-22T18:08:58;4.40;;;3.33;;
5454;SDS011;2750;49.050;9.250;2024-03-22T18:13:59;4.90;;;4.40;;
5454;SDS011;2750;49.050;9.250;2024-03-22T18:19:02;4.57;;;4.10;;
5454;SDS011;2750;49.050;9.250;2024-03-22T18:24:05;5.83;;;5.10;;
5454;SDS011;2750;49.050;9.250;2024-03-22T18:29:07;9.00;;;5.93;;
5454;SDS011;2750;49.050;9.250;2024-03-22T18:34:10;5.47;;;4.63;;
5454;SDS011;2750;49.050;9.250;2024-03-22T18:39:11;5.47;;;4.57;;
5454;SDS011;2750;49.050;9.250;2024-03-22T18:44:13;3.83;;;3.00;;
5454;SDS011;2750;49.050;9.250;2024-03-22T18:49:16;4.47;;;2.93;;
5454;SDS011;2750;49.050;9.250;2024-03-22T18:54:17;9.03;;;8.17;;
5454;SDS011;2750;49.050;9.250;2024-03-22T18:59:19;3.50;;;3.07;;
5454;SDS011;2750;49.050;9.250;2024-03-22T19:04:22;3.20;;;2.83;;
5454;SDS011;2750;49.050;9.250;2024-03-22T19:09:23;5.77;;;4.60;;
5454;SDS011;2750;49.050;9.250;2024-03-22T19:14:25;4.73;;;3.43;;
5454;SDS011;2750;49.050;9.250;2024-03-22T19:19:28;5.70;;;3.83;;
5454;SDS011;2750;49.050;9.250;2024-03-22T19:24:29;9.00;;;6.73;;
5454;SDS011;2750;49.050;9.250;2024-03-22T19:29:31;11.37;;;8.07;;
5454;SDS011;2750;49.050;9.250;2024-03-22T19:34:34;4.70;;;3.40;;
5454;SDS011;2750;49.050;9.250;2024-03-22T19:39:36;3.10;;;2.57;;
5454;SDS011;2750;49.050;9.250;2024-03-22T19:44:37;3.97;;;2.80;;
5454;SDS011;2750;49.050;9.250;2024-03-22T19:49:40;6.23;;;5.13;;
5454;SDS011;2750;49.050;9.250;2024-03-22T19:54:42;7.77;;;5.73;;
5454;SDS011;2750;49.050;9.250;2024-03-22T19:59:43;9.63;;;7.97;;
5454;SDS011;2750;49.050;9.250;2024-03-22T20:04:46;9.03;;;7.00;;
5454;SDS011;2750;49.050;9.250;2024-03-22T20:09:48;9.43;;;7.07;;
5454;SDS011;2750;49.050;9.250;2024-03-22T20:14:50;9.90;;;8.67;;
5454;SDS011;2750;49.050;9.250;2024-03-22T20:19:52;9.30;;;7.93;;
5454;SDS011;2750;49.050;9.250;2024-03-22T20:24:54;12.73;;;7.87;;
5454;SDS011;2750;49.050;9.250;2024-03-22T20:29:55;11.70;;;9.17;;
5454;SDS011;2750;49.050;9.250;2024-03-22T20:34:58;17.70;;;12.40;;
